Time;durP1;ratioP1;P1;durP2;ratioP2;P2;SDS_P1;SDS_P2;PMS_P1;PMS_P2;Temp;Humidity;BMP_temperature;BMP_pressure;BME280_temperature;BME280_humidity;BME280_pressure;Samples;Min_cycle;Max_cycle;Signal;HPM_P1;HPM_P2
2023/06/27 00:00:22;;;;;;;6.90;1.88;;;17.10;99.90;;;;;;5036100;28;20127;-85
2023/06/27 00:02:47;;;;;;;6.63;1.48;;;17.00;99.90;;;;;;5042795;28;20355;-87
2023/06/27 00:05:14;;;;;;;7.82;2.03;;;17.00;99.90;;;;;;5038024;28;20037;-88
2023/06/27 00:07:41;;;;;;;7.20;2.08;;;17.00;99.90;;;;;;5038254;28;20031;-87
2023/06/27 00:10:08;;;;;;;5.57;1.67;;;17.00;99.90;;;;;;5034670;28;20029;-87
2023/06/27 00:12:34;;;;;;;16.63;2.83;;;16.90;99.90;;;;;;5034876;28;20087;-86
2023/06/27 00:15:00;;;;;;;10.45;2.00;;;17.00;99.90;;;;;;5030169;28;20032;-87
2023/06/27 00:17:25;;;;;;;3.70;1.77;;;16.90;99.90;;;;;;5039607;28;20074;-86
2023/06/27 00:19:57;;;;;;;11.35;2.65;;;16.90;99.90;;;;;;4996647;28;20021;-88
2023/06/27 00:22:23;;;;;;;6.43;1.90;;;16.90;99.90;;;;;;5045613;28;20074;-87
2023/06/27 00:24:49;;;;;;;5.80;1.83;;;17.00;99.90;;;;;;5037216;28;20490;-88
2023/06/27 00:27:15;;;;;;;6.75;1.80;;;16.90;99.90;;;;;;5041705;28;20462;-88
2023/06/27 00:29:41;;;;;;;7.78;1.88;;;16.80;99.90;;;;;;5040724;28;20040;-89
2023/06/27 00:32:07;;;;;;;8.13;2.30;;;16.80;99.90;;;;;;5036670;28;20029;-87
2023/06/27 00:34:32;;;;;;;8.40;2.00;;;16.70;99.90;;;;;;5011810;28;20025;-87
2023/06/27 00:36:58;;;;;;;9.07;2.17;;;16.80;99.90;;;;;;5035198;28;20036;-88
2023/06/27 00:39:23;;;;;;;7.30;2.55;;;16.70;99.90;;;;;;5042759;28;20065;-90
2023/06/27 00:41:49;;;;;;;13.55;2.80;;;16.80;99.90;;;;;;5043373;28;20029;-90
2023/06/27 00:44:14;;;;;;;10.77;2.33;;;16.70;99.90;;;;;;5037673;28;20056;-87
2023/06/27 00:46:41;;;;;;;11.32;2.42;;;16.60;99.90;;;;;;5038051;28;20251;-88
2023/06/27 00:49:08;;;;;;;14.73;2.72;;;16.70;99.90;;;;;;5045338;28;20051;-87
2023/06/27 00:51:34;;;;;;;9.88;2.30;;;16.70;99.90;;;;;;5037752;28;20112;-87
2023/06/27 00:54:00;;;;;;;9.90;2.45;;;16.70;99.90;;;;;;5037298;28;20029;-86
2023/06/27 00:56:27;;;;;;;12.98;2.38;;;16.60;99.90;;;;;;5033469;28;20078;-85
2023/06/27 00:58:58;;;;;;;17.98;3.05;;;16.60;99.90;;;;;;5042338;28;20061;-87
2023/06/27 01:01:25;;;;;;;10.07;1.95;;;16.60;99.90;;;;;;5040990;28;20028;-87
2023/06/27 01:03:51;;;;;;;6.97;2.58;;;16.60;99.90;;;;;;5046233;28;20025;-87
2023/06/27 01:06:39;;;;;;;12.57;2.70;;;16.50;99.90;;;;;;5045788;28;20438;-89
2023/06/27 01:09:40;;;;;;;10.80;2.55;;;16.50;99.90;;;;;;5037784;28;20560;-87
2023/06/27 01:12:41;;;;;;;7.40;2.33;;;16.60;99.90;;;;;;5033866;28;20036;-87
2023/06/27 01:15:08;;;;;;;8.50;2.55;;;16.60;99.90;;;;;;5030498;28;20222;-88
2023/06/27 01:17:36;;;;;;;6.63;2.60;;;16.60;99.90;;;;;;5032062;28;20031;-88
2023/06/27 01:20:06;;;;;;;13.90;3.38;;;16.60;99.90;;;;;;5036686;28;20029;-91
2023/06/27 01:22:39;;;;;;;7.90;2.53;;;16.60;99.90;;;;;;5043501;28;20036;-87
2023/06/27 01:25:07;;;;;;;17.00;3.13;;;16.60;99.90;;;;;;5043936;28;20120;-85
2023/06/27 01:27:33;;;;;;;14.35;2.85;;;16.60;99.90;;;;;;5043966;28;20037;-87
2023/06/27 01:29:59;;;;;;;14.50;3.08;;;16.50;99.90;;;;;;5045332;28;20079;-86
2023/06/27 01:33:05;;;;;;;12.10;3.05;;;16.50;99.90;;;;;;5029366;28;20063;-86
2023/06/27 01:35:50;;;;;;;25.08;3.03;;;16.50;99.90;;;;;;5039190;28;20095;-87
2023/06/27 01:38:24;;;;;;;12.55;2.50;;;16.50;99.90;;;;;;5046482;28;20048;-89
2023/06/27 01:40:52;;;;;;;8.05;2.03;;;16.40;99.90;;;;;;5035670;28;20053;-90
2023/06/27 01:43:19;;;;;;;7.95;2.40;;;16.30;99.90;;;;;;5012051;28;20033;-90
2023/06/27 01:45:45;;;;;;;9.02;2.28;;;16.30;99.90;;;;;;5041658;28;20044;-90
2023/06/27 01:48:11;;;;;;;20.38;3.42;;;16.20;99.90;;;;;;5022939;28;20479;-90
2023/06/27 01:50:37;;;;;;;11.52;2.90;;;16.30;99.90;;;;;;5041278;28;20025;-89
2023/06/27 01:53:02;;;;;;;6.63;2.28;;;16.20;99.90;;;;;;5041617;28;20024;-89
2023/06/27 01:55:28;;;;;;;12.13;3.13;;;16.20;99.90;;;;;;5046360;28;20108;-90
2023/06/27 01:57:53;;;;;;;12.70;3.17;;;16.20;99.90;;;;;;5045420;28;20021;-88
2023/06/27 02:00:19;;;;;;;15.07;2.72;;;16.20;99.90;;;;;;5040207;28;20039;-87
2023/06/27 02:02:45;;;;;;;11.48;2.50;;;16.20;99.90;;;;;;5030623;28;20038;-88
2023/06/27 02:05:10;;;;;;;22.58;3.38;;;16.10;99.90;;;;;;5037267;28;20025;-87
2023/06/27 02:07:36;;;;;;;10.38;2.70;;;16.10;99.90;;;;;;5042688;28;20505;-87
2023/06/27 02:10:04;;;;;;;11.18;3.33;;;16.00;99.90;;;;;;5041719;28;20032;-89
2023/06/27 02:12:30;;;;;;;7.80;2.30;;;16.00;99.90;;;;;;5037581;28;20474;-87
2023/06/27 02:14:55;;;;;;;21.13;4.80;;;16.00;99.90;;;;;;5017127;28;20044;-87
2023/06/27 02:17:21;;;;;;;13.93;3.58;;;15.90;99.90;;;;;;5043170;28;20647;-87
2023/06/27 02:19:46;;;;;;;12.25;2.65;;;15.90;99.90;;;;;;5041951;28;20042;-86
2023/06/27 02:22:12;;;;;;;14.05;2.90;;;15.90;99.90;;;;;;5024916;28;20024;-88
2023/06/27 02:24:37;;;;;;;19.52;3.53;;;15.80;99.90;;;;;;5047252;28;20430;-86
2023/06/27 02:27:03;;;;;;;9.23;3.10;;;15.80;99.90;;;;;;5038078;28;20063;-87
2023/06/27 02:29:28;;;;;;;10.38;2.63;;;15.80;99.90;;;;;;5044656;28;20056;-86
2023/06/27 02:31:54;;;;;;;11.25;2.70;;;15.70;99.90;;;;;;5042754;28;20108;-87
2023/06/27 02:34:20;;;;;;;19.60;3.25;;;15.70;99.90;;;;;;5042708;28;20033;-86
2023/06/27 02:36:45;;;;;;;14.60;2.40;;;15.70;99.90;;;;;;5033026;28;20821;-87
2023/06/27 02:39:11;;;;;;;14.02;3.10;;;15.70;99.90;;;;;;5043519;28;20052;-89
2023/06/27 02:41:36;;;;;;;19.77;2.92;;;15.60;99.90;;;;;;5036098;28;20025;-89
2023/06/27 02:44:02;;;;;;;11.63;2.55;;;15.60;99.90;;;;;;5040107;28;20029;-89
2023/06/27 02:46:27;;;;;;;14.38;2.92;;;15.60;99.90;;;;;;5043888;28;20041;-88
2023/06/27 02:48:53;;;;;;;10.55;2.92;;;15.50;99.90;;;;;;5042268;28;20033;-90
2023/06/27 02:51:20;;;;;;;8.45;2.55;;;15.60;99.90;;;;;;4960874;28;20032;-89
2023/06/27 02:53:47;;;;;;;8.25;2.25;;;15.50;99.90;;;;;;5042596;28;20793;-87
2023/06/27 02:56:13;;;;;;;15.73;2.33;;;15.50;99.90;;;;;;5035464;28;20102;-87
2023/06/27 02:58:39;;;;;;;13.50;2.65;;;15.50;99.90;;;;;;5036366;28;20466;-85
2023/06/27 03:01:06;;;;;;;11.30;3.13;;;15.50;99.90;;;;;;5039639;28;20104;-85
2023/06/27 03:03:32;;;;;;;13.98;2.75;;;15.50;99.90;;;;;;5041196;28;20094;-85
2023/06/27 03:06:02;;;;;;;7.95;2.53;;;15.50;99.90;;;;;;5044510;28;20041;-86
2023/06/27 03:08:29;;;;;;;14.98;2.47;;;15.40;99.90;;;;;;5039713;28;20025;-86
2023/06/27 03:10:56;;;;;;;12.13;2.88;;;15.40;99.90;;;;;;5042783;28;20039;-85
2023/06/27 03:13:21;;;;;;;11.77;2.63;;;15.40;99.90;;;;;;5036090;28;20021;-85
2023/06/27 03:15:47;;;;;;;12.63;2.67;;;15.40;99.90;;;;;;5043303;28;20094;-86
2023/06/27 03:18:12;;;;;;;14.63;3.10;;;15.40;99.90;;;;;;5043750;28;20052;-85
2023/06/27 03:20:38;;;;;;;11.73;2.28;;;15.30;99.90;;;;;;5042590;28;20029;-85
2023/06/27 03:23:03;;;;;;;16.15;2.85;;;15.40;99.90;;;;;;5040794;28;20433;-84
2023/06/27 03:25:29;;;;;;;22.40;3.83;;;15.40;99.90;;;;;;5039374;28;20040;-82
2023/06/27 03:27:54;;;;;;;10.18;2.60;;;15.40;99.90;;;;;;5038085;28;20037;-82
2023/06/27 03:30:20;;;;;;;14.95;2.47;;;15.30;99.90;;;;;;5040483;28;20035;-82
2023/06/27 03:32:47;;;;;;;7.47;2.30;;;15.30;99.90;;;;;;5041692;28;20127;-84
2023/06/27 03:35:12;;;;;;;6.20;1.98;;;15.30;99.90;;;;;;5038658;28;20402;-84
2023/06/27 03:37:38;;;;;;;12.00;2.60;;;15.30;99.90;;;;;;5039719;28;20029;-84
2023/06/27 03:40:04;;;;;;;11.82;3.08;;;15.30;99.90;;;;;;5044359;28;20041;-85
2023/06/27 03:42:30;;;;;;;18.60;3.22;;;15.20;99.90;;;;;;5045432;28;20107;-84
2023/06/27 03:44:56;;;;;;;7.30;2.20;;;15.30;99.90;;;;;;5043739;28;21169;-84
2023/06/27 03:47:24;;;;;;;15.45;2.38;;;15.30;99.90;;;;;;5045079;28;20393;-87
2023/06/27 03:49:50;;;;;;;17.83;2.65;;;15.30;99.90;;;;;;5042300;28;20025;-83
2023/06/27 03:52:16;;;;;;;12.20;2.72;;;15.30;99.90;;;;;;5033944;28;20533;-83
2023/06/27 03:54:41;;;;;;;18.90;2.88;;;15.30;99.90;;;;;;5039149;28;20034;-81
2023/06/27 03:57:07;;;;;;;10.57;2.58;;;15.30;99.90;;;;;;5043192;28;20477;-87
2023/06/27 03:59:32;;;;;;;5.05;1.92;;;15.20;99.90;;;;;;5037165;28;20116;-82
2023/06/27 04:01:58;;;;;;;11.27;2.50;;;15.30;99.90;;;;;;5042809;28;20079;-82
2023/06/27 04:04:24;;;;;;;7.15;2.47;;;15.20;99.90;;;;;;5022074;28;20115;-83
2023/06/27 04:06:49;;;;;;;9.80;2.28;;;15.20;99.90;;;;;;5040131;28;20052;-81
2023/06/27 04:09:15;;;;;;;12.88;2.65;;;15.20;99.90;;;;;;5038866;28;20030;-81
2023/06/27 04:11:40;;;;;;;11.15;1.95;;;15.20;99.90;;;;;;5036446;28;20056;-83
2023/06/27 04:14:06;;;;;;;5.93;2.05;;;15.20;99.90;;;;;;5000672;28;20060;-83
2023/06/27 04:16:32;;;;;;;8.52;2.22;;;15.30;99.90;;;;;;5035857;28;20033;-83
2023/06/27 04:18:57;;;;;;;14.98;2.22;;;15.30;99.90;;;;;;5037313;28;20028;-83
2023/06/27 04:21:23;;;;;;;11.13;1.75;;;15.40;99.90;;;;;;5040575;28;20687;-84
2023/06/27 04:23:50;;;;;;;11.13;2.45;;;15.30;99.90;;;;;;5041827;28;20044;-82
2023/06/27 04:26:17;;;;;;;15.32;2.67;;;15.40;99.90;;;;;;5037290;28;20125;-81
2023/06/27 04:28:44;;;;;;;13.98;1.92;;;15.40;99.90;;;;;;5041411;28;20120;-84
2023/06/27 04:31:09;;;;;;;7.80;1.92;;;15.40;99.90;;;;;;5025045;28;20031;-84
2023/06/27 04:33:39;;;;;;;5.65;1.40;;;15.40;99.90;;;;;;5038909;28;20393;-84
2023/06/27 04:36:05;;;;;;;8.48;1.65;;;15.40;99.90;;;;;;5030936;28;20029;-84
2023/06/27 04:38:37;;;;;;;12.20;2.30;;;15.40;99.90;;;;;;5036667;28;20040;-84
2023/06/27 04:41:04;;;;;;;9.13;2.25;;;15.40;99.90;;;;;;5033016;28;20059;-84
2023/06/27 04:43:32;;;;;;;13.05;2.10;;;15.50;99.90;;;;;;5026716;28;20036;-85
2023/06/27 04:46:00;;;;;;;7.40;1.80;;;15.50;99.90;;;;;;5037938;28;20360;-84
2023/06/27 04:48:26;;;;;;;10.02;1.80;;;15.50;99.90;;;;;;5036514;28;20029;-82
2023/06/27 04:50:53;;;;;;;8.98;2.10;;;15.60;99.90;;;;;;5021808;28;20119;-83
2023/06/27 04:53:19;;;;;;;8.65;2.03;;;15.60;99.90;;;;;;5043238;28;20049;-80
2023/06/27 04:55:49;;;;;;;9.35;1.50;;;15.50;99.90;;;;;;5040141;28;20090;-82
2023/06/27 04:58:15;;;;;;;6.97;1.63;;;15.50;99.90;;;;;;5041719;28;20386;-82
2023/06/27 05:00:41;;;;;;;9.68;1.85;;;15.50;99.90;;;;;;5034889;28;20029;-80
2023/06/27 05:03:07;;;;;;;6.50;1.65;;;15.50;99.90;;;;;;5035158;28;20029;-82
2023/06/27 05:05:33;;;;;;;9.63;1.75;;;15.50;99.90;;;;;;5039534;28;20395;-83
2023/06/27 05:08:03;;;;;;;5.20;1.67;;;15.40;99.90;;;;;;5037046;28;20251;-82
2023/06/27 05:10:33;;;;;;;9.57;1.98;;;15.50;99.90;;;;;;5033744;28;20037;-81
2023/06/27 05:12:59;;;;;;;7.20;1.75;;;15.60;99.90;;;;;;5021581;28;20024;-80
2023/06/27 05:15:24;;;;;;;8.73;1.60;;;15.60;99.90;;;;;;5043039;28;20037;-83
2023/06/27 05:18:08;;;;;;;6.63;1.83;;;15.70;99.90;;;;;;5029733;28;20104;-82
2023/06/27 05:20:34;;;;;;;13.43;2.17;;;15.70;99.90;;;;;;5031080;28;20485;-82
2023/06/27 05:23:01;;;;;;;4.20;1.60;;;15.70;99.90;;;;;;5035195;28;20021;-83
2023/06/27 05:25:27;;;;;;;6.82;2.05;;;15.70;99.90;;;;;;5043854;28;20496;-82
2023/06/27 05:27:52;;;;;;;11.43;2.28;;;15.80;99.90;;;;;;5039139;28;20037;-82
2023/06/27 05:30:18;;;;;;;10.73;1.75;;;15.80;99.90;;;;;;5043235;28;20066;-82
2023/06/27 05:32:45;;;;;;;9.38;1.45;;;15.90;99.90;;;;;;5019468;28;20025;-82
2023/06/27 05:35:11;;;;;;;7.60;1.58;;;15.90;99.90;;;;;;5046006;28;20033;-82
2023/06/27 05:37:36;;;;;;;12.68;1.88;;;15.90;99.90;;;;;;5019715;28;20033;-80
2023/06/27 05:40:02;;;;;;;14.05;2.55;;;15.90;99.90;;;;;;5041481;28;20053;-84
2023/06/27 05:42:28;;;;;;;13.00;2.45;;;16.00;99.90;;;;;;5042138;28;20037;-83
2023/06/27 05:44:53;;;;;;;9.35;1.98;;;16.00;99.90;;;;;;5042309;28;20052;-83
2023/06/27 05:47:19;;;;;;;6.65;1.63;;;16.00;99.90;;;;;;5040936;28;20028;-82
2023/06/27 05:49:44;;;;;;;8.15;1.98;;;16.00;99.90;;;;;;5043166;28;20029;-82
2023/06/27 05:52:10;;;;;;;10.40;1.83;;;16.10;99.90;;;;;;5037281;28;20052;-83
2023/06/27 05:54:35;;;;;;;14.32;1.70;;;16.10;99.90;;;;;;5044754;28;20493;-81
2023/06/27 05:57:01;;;;;;;10.43;2.10;;;16.20;99.90;;;;;;5042385;28;20029;-84
2023/06/27 05:59:26;;;;;;;13.13;2.67;;;16.20;99.90;;;;;;5046146;28;20033;-83
2023/06/27 06:01:52;;;;;;;14.65;3.13;;;16.30;99.90;;;;;;5022341;28;20029;-82
2023/06/27 06:04:17;;;;;;;13.52;2.30;;;16.30;99.90;;;;;;5043267;28;20060;-82
2023/06/27 06:06:43;;;;;;;7.07;1.83;;;16.40;99.90;;;;;;5040047;28;20163;-84
2023/06/27 06:09:08;;;;;;;10.52;2.53;;;16.40;99.90;;;;;;5039513;28;20096;-83
2023/06/27 06:11:34;;;;;;;10.88;2.40;;;16.50;99.90;;;;;;5046131;28;20025;-82
2023/06/27 06:14:03;;;;;;;7.57;1.88;;;16.60;99.90;;;;;;5031322;28;20032;-84
2023/06/27 06:16:33;;;;;;;17.50;2.47;;;16.70;99.90;;;;;;5041455;28;20025;-81
2023/06/27 06:19:03;;;;;;;13.75;2.38;;;16.90;99.90;;;;;;5045848;28;20029;-84
2023/06/27 06:21:30;;;;;;;7.63;2.00;;;16.80;99.90;;;;;;5034191;28;20027;-81
2023/06/27 06:23:55;;;;;;;14.18;2.03;;;16.90;99.90;;;;;;5042009;28;20028;-82
2023/06/27 06:26:21;;;;;;;9.10;1.88;;;16.90;99.90;;;;;;5041485;28;20462;-82
2023/06/27 06:28:47;;;;;;;14.68;2.20;;;16.90;99.90;;;;;;5016354;28;20041;-83
2023/06/27 06:31:16;;;;;;;14.40;2.10;;;16.90;99.90;;;;;;5025450;28;20036;-82
2023/06/27 06:33:44;;;;;;;12.70;1.98;;;17.00;99.90;;;;;;5043049;28;20118;-82
2023/06/27 06:36:10;;;;;;;11.60;2.00;;;17.00;99.90;;;;;;5037340;28;20471;-82
2023/06/27 06:38:36;;;;;;;8.02;1.75;;;17.00;99.90;;;;;;5043563;28;20056;-82
2023/06/27 06:41:02;;;;;;;7.82;1.88;;;17.10;99.90;;;;;;5043894;28;20125;-85
2023/06/27 06:43:28;;;;;;;10.38;2.15;;;17.20;99.90;;;;;;5041300;28;20060;-81
2023/06/27 06:45:53;;;;;;;24.17;3.40;;;17.10;99.90;;;;;;5040774;28;20752;-81
2023/06/27 06:48:19;;;;;;;7.85;1.63;;;17.00;99.90;;;;;;5027553;28;20075;-79
2023/06/27 06:50:45;;;;;;;12.57;1.98;;;16.90;99.90;;;;;;5039108;28;20363;-81
2023/06/27 06:53:10;;;;;;;6.85;1.80;;;16.90;99.90;;;;;;5032488;28;20017;-81
2023/06/27 06:55:36;;;;;;;5.88;1.60;;;16.80;99.90;;;;;;5021001;28;20087;-82
2023/06/27 06:58:02;;;;;;;12.18;2.30;;;16.70;99.90;;;;;;5043144;28;20025;-82
2023/06/27 07:00:27;;;;;;;12.48;2.20;;;16.70;99.90;;;;;;5043953;28;20078;-82
2023/06/27 07:02:54;;;;;;;11.48;1.80;;;16.70;99.90;;;;;;5034584;28;20040;-84
2023/06/27 07:05:19;;;;;;;4.82;1.38;;;16.80;99.90;;;;;;5041676;28;20029;-81
2023/06/27 07:07:45;;;;;;;8.23;1.95;;;16.90;99.90;;;;;;5032116;28;20032;-80
2023/06/27 07:10:10;;;;;;;7.85;1.88;;;16.90;99.90;;;;;;5033570;28;20034;-83
2023/06/27 07:12:36;;;;;;;8.27;1.40;;;17.00;99.90;;;;;;5037418;28;20021;-82
2023/06/27 07:15:01;;;;;;;7.50;1.55;;;17.10;99.90;;;;;;5042432;28;20381;-83
2023/06/27 07:17:27;;;;;;;10.18;2.15;;;17.10;99.90;;;;;;5046422;28;20021;-83
2023/06/27 07:19:53;;;;;;;5.93;1.45;;;17.10;99.90;;;;;;5034996;28;20040;-85
2023/06/27 07:22:19;;;;;;;12.43;2.35;;;17.10;99.90;;;;;;5042214;28;20060;-82
2023/06/27 07:24:44;;;;;;;6.63;1.33;;;17.10;99.90;;;;;;5043041;28;20095;-81
2023/06/27 07:27:10;;;;;;;4.40;1.38;;;17.20;99.90;;;;;;5038505;28;20092;-81
2023/06/27 07:29:36;;;;;;;5.63;1.60;;;17.30;99.90;;;;;;5043298;28;20124;-84
2023/06/27 07:32:02;;;;;;;9.98;1.38;;;17.30;99.90;;;;;;5030823;28;20041;-83
2023/06/27 07:34:27;;;;;;;13.88;1.73;;;17.30;99.90;;;;;;5029458;28;20033;-83
2023/06/27 07:36:53;;;;;;;4.60;1.20;;;17.40;99.90;;;;;;5038709;28;20033;-83
2023/06/27 07:39:18;;;;;;;4.32;1.40;;;17.50;99.90;;;;;;5032834;28;20399;-82
2023/06/27 07:41:44;;;;;;;6.85;1.73;;;17.70;99.90;;;;;;5025838;28;20025;-83
2023/06/27 07:44:10;;;;;;;13.85;2.10;;;17.80;99.90;;;;;;5032863;28;20108;-82
2023/06/27 07:46:35;;;;;;;8.13;1.50;;;17.80;99.90;;;;;;5035220;28;20455;-83
2023/06/27 07:49:02;;;;;;;5.38;1.73;;;17.80;99.90;;;;;;5034821;28;20025;-84
2023/06/27 07:51:27;;;;;;;13.60;1.80;;;17.90;99.90;;;;;;5036259;28;20029;-82
2023/06/27 07:53:54;;;;;;;6.63;1.60;;;17.80;99.90;;;;;;5028129;28;20391;-84
2023/06/27 07:56:20;;;;;;;9.13;2.17;;;17.90;99.90;;;;;;5040856;28;20036;-82
2023/06/27 07:58:45;;;;;;;7.88;1.50;;;18.00;99.90;;;;;;5019351;28;20025;-83
2023/06/27 08:01:11;;;;;;;5.03;1.73;;;18.10;99.90;;;;;;5032191;28;20033;-85
2023/06/27 08:03:37;;;;;;;4.43;1.63;;;18.00;99.90;;;;;;5035346;28;20033;-84
2023/06/27 08:06:05;;;;;;;5.13;1.50;;;18.00;99.90;;;;;;5034463;28;20091;-82
2023/06/27 08:08:31;;;;;;;3.50;1.40;;;18.00;99.90;;;;;;5030924;28;20030;-86
2023/06/27 08:10:57;;;;;;;9.88;1.38;;;18.00;99.90;;;;;;5033510;28;20028;-82
2023/06/27 08:13:23;;;;;;;8.15;1.90;;;18.10;99.90;;;;;;5023770;28;20438;-82
2023/06/27 08:15:48;;;;;;;4.70;1.70;;;18.00;99.90;;;;;;5036541;28;20033;-83
2023/06/27 08:18:14;;;;;;;5.57;1.80;;;18.10;99.90;;;;;;5027592;28;20053;-81
2023/06/27 08:20:39;;;;;;;7.22;1.65;;;18.10;99.90;;;;;;5031746;28;20431;-82
2023/06/27 08:23:05;;;;;;;7.68;2.10;;;18.30;99.90;;;;;;5041425;28;20017;-83
2023/06/27 08:25:32;;;;;;;4.10;1.08;;;18.40;99.90;;;;;;5032240;28;20505;-86
2023/06/27 08:27:58;;;;;;;6.70;1.23;;;18.40;99.90;;;;;;5045512;28;20082;-85
2023/06/27 08:30:23;;;;;;;7.20;1.35;;;18.50;99.90;;;;;;5031189;28;20025;-84
2023/06/27 08:32:49;;;;;;;5.18;1.23;;;18.50;99.90;;;;;;5027305;28;20033;-82
2023/06/27 08:35:15;;;;;;;6.75;1.38;;;18.50;99.90;;;;;;5028445;28;20028;-84
2023/06/27 08:37:40;;;;;;;2.75;1.20;;;18.50;99.90;;;;;;5037513;28;20029;-81
2023/06/27 08:40:09;;;;;;;5.00;1.40;;;18.50;99.90;;;;;;5040696;28;20052;-87
2023/06/27 08:42:35;;;;;;;4.05;1.23;;;18.40;99.90;;;;;;5037470;28;20041;-80
2023/06/27 08:45:01;;;;;;;7.78;1.30;;;18.30;99.90;;;;;;5039290;28;20036;-85
2023/06/27 08:47:29;;;;;;;7.47;1.20;;;18.40;99.90;;;;;;5022275;28;20128;-84
2023/06/27 08:50:03;;;;;;;4.47;1.20;;;18.40;99.90;;;;;;5041067;28;20029;-81
2023/06/27 08:52:32;;;;;;;4.80;1.40;;;18.60;99.90;;;;;;5033780;28;20029;-85
2023/06/27 08:54:58;;;;;;;4.70;1.50;;;18.70;99.90;;;;;;5042295;28;20029;-85
2023/06/27 08:57:29;;;;;;;6.60;1.83;;;18.80;99.90;;;;;;5031921;28;20048;-85
2023/06/27 08:59:57;;;;;;;7.47;2.35;;;18.80;99.90;;;;;;5038554;28;20064;-84
2023/06/27 09:02:25;;;;;;;8.43;1.48;;;18.80;99.90;;;;;;5039496;28;20032;-86
2023/06/27 09:04:51;;;;;;;9.38;1.38;;;18.90;99.90;;;;;;5038497;28;20183;-82
2023/06/27 09:07:18;;;;;;;8.10;1.83;;;18.90;99.90;;;;;;5035839;28;20037;-84
2023/06/27 09:09:44;;;;;;;11.93;2.28;;;18.90;99.90;;;;;;5044829;28;20051;-85
2023/06/27 09:12:11;;;;;;;7.20;2.03;;;18.80;99.90;;;;;;5019271;28;20025;-81
2023/06/27 09:14:37;;;;;;;6.93;1.50;;;18.80;99.90;;;;;;5043561;28;20403;-84
2023/06/27 09:17:05;;;;;;;8.45;1.85;;;18.70;99.90;;;;;;5044393;28;20515;-81
2023/06/27 09:19:31;;;;;;;8.18;1.88;;;18.80;99.90;;;;;;5018542;28;20318;-82
2023/06/27 09:21:57;;;;;;;5.55;1.10;;;18.90;99.90;;;;;;5043037;28;20171;-84
2023/06/27 09:24:23;;;;;;;8.52;1.20;;;18.90;99.90;;;;;;5040242;28;20112;-84
2023/06/27 09:26:49;;;;;;;4.10;1.10;;;18.80;99.90;;;;;;5045522;28;20171;-84
2023/06/27 09:29:14;;;;;;;10.45;2.33;;;18.70;99.90;;;;;;5037877;28;20017;-84
2023/06/27 09:31:40;;;;;;;3.65;1.25;;;18.70;99.90;;;;;;5020139;28;20033;-83
2023/06/27 09:34:06;;;;;;;7.43;1.80;;;18.70;99.90;;;;;;5043875;28;20131;-84
2023/06/27 09:36:33;;;;;;;6.45;1.33;;;18.70;99.90;;;;;;5045068;28;20048;-83
2023/06/27 09:39:07;;;;;;;4.28;1.02;;;18.70;99.90;;;;;;5041506;28;20431;-84
2023/06/27 09:41:44;;;;;;;6.43;1.30;;;18.70;99.90;;;;;;5040523;28;20375;-84
2023/06/27 09:44:21;;;;;;;6.57;1.63;;;18.80;99.90;;;;;;5033794;28;20088;-83
2023/06/27 09:46:48;;;;;;;4.05;1.25;;;18.90;99.90;;;;;;5031278;28;20042;-82
2023/06/27 09:49:15;;;;;;;9.18;1.48;;;19.10;99.90;;;;;;5044279;28;20082;-84
2023/06/27 09:51:49;;;;;;;8.15;1.27;;;19.30;99.90;;;;;;5026874;28;20128;-84
2023/06/27 09:54:18;;;;;;;11.15;1.77;;;19.20;99.90;;;;;;5039548;28;20580;-81
2023/06/27 09:56:43;;;;;;;7.20;2.03;;;19.20;99.90;;;;;;5043574;28;20025;-84
2023/06/27 09:59:10;;;;;;;5.72;1.33;;;19.00;99.90;;;;;;5039474;28;20094;-83
2023/06/27 10:01:37;;;;;;;7.03;1.50;;;19.00;99.90;;;;;;5024259;28;20033;-82
2023/06/27 10:04:03;;;;;;;7.80;1.88;;;19.00;99.90;;;;;;5046727;28;20037;-83
2023/06/27 10:06:29;;;;;;;6.40;1.48;;;19.00;99.90;;;;;;5036334;28;20379;-82
2023/06/27 10:08:57;;;;;;;8.85;1.40;;;19.10;99.90;;;;;;5035792;28;20044;-89
2023/06/27 10:11:24;;;;;;;6.40;1.50;;;19.30;99.90;;;;;;5036995;28;20037;-82
2023/06/27 10:13:50;;;;;;;3.00;1.20;;;19.50;99.90;;;;;;5038536;28;20025;-82
2023/06/27 10:16:19;;;;;;;4.65;1.23;;;19.60;99.90;;;;;;5037478;28;20520;-84
2023/06/27 10:18:45;;;;;;;5.15;1.10;;;19.70;99.90;;;;;;5035563;28;20521;-85
2023/06/27 10:21:11;;;;;;;5.78;1.33;;;19.80;99.90;;;;;;5042497;28;20493;-86
2023/06/27 10:23:41;;;;;;;6.85;1.42;;;19.80;99.90;;;;;;5044786;28;20071;-83
2023/06/27 10:26:09;;;;;;;7.40;1.45;;;19.90;99.90;;;;;;5034533;28;20033;-83
2023/06/27 10:28:35;;;;;;;4.07;0.80;;;19.80;99.90;;;;;;5038255;28;20040;-84
2023/06/27 10:31:04;;;;;;;6.57;1.65;;;19.70;99.90;;;;;;5039385;28;20056;-81
2023/06/27 10:33:32;;;;;;;7.90;1.30;;;19.70;99.90;;;;;;5038589;28;20029;-81
2023/06/27 10:36:05;;;;;;;4.18;1.50;;;19.70;99.90;;;;;;5040832;28;20040;-84
2023/06/27 10:38:38;;;;;;;5.35;1.55;;;19.60;99.90;;;;;;5035186;28;20486;-87
2023/06/27 10:41:05;;;;;;;9.80;1.80;;;19.60;99.90;;;;;;5038725;28;20113;-88
2023/06/27 10:43:50;;;;;;;6.50;1.30;;;19.60;99.90;;;;;;5037757;28;20068;-82
2023/06/27 10:46:23;;;;;;;8.00;1.40;;;19.60;99.90;;;;;;5035491;28;20091;-82
2023/06/27 10:48:53;;;;;;;8.55;2.38;;;19.70;99.90;;;;;;5041551;28;20108;-83
2023/06/27 10:51:22;;;;;;;10.40;2.15;;;19.70;99.90;;;;;;5037790;28;20032;-82
2023/06/27 10:54:06;;;;;;;3.10;1.02;;;19.70;99.90;;;;;;5043606;28;20045;-81
2023/06/27 10:56:35;;;;;;;6.45;1.30;;;19.90;99.90;;;;;;5036186;28;20027;-83
2023/06/27 10:59:03;;;;;;;8.82;1.30;;;20.10;99.90;;;;;;5041785;28;20525;-80
2023/06/27 11:01:30;;;;;;;3.15;1.02;;;20.20;99.90;;;;;;5037055;28;20040;-84
2023/06/27 11:03:58;;;;;;;5.35;1.35;;;20.10;99.90;;;;;;5034093;28;20346;-81
2023/06/27 11:06:45;;;;;;;4.50;1.23;;;20.00;99.90;;;;;;5034229;28;20048;-82
2023/06/27 11:09:18;;;;;;;5.40;1.58;;;19.90;99.90;;;;;;5037720;28;20071;-83
2023/06/27 11:11:54;;;;;;;6.75;1.25;;;19.80;99.90;;;;;;5032612;28;20068;-84
2023/06/27 11:14:45;;;;;;;7.63;1.70;;;19.90;99.90;;;;;;5043596;28;20552;-84
2023/06/27 11:17:12;;;;;;;3.25;1.10;;;19.80;99.90;;;;;;5042288;28;20115;-83
2023/06/27 11:19:42;;;;;;;9.10;1.67;;;20.00;99.90;;;;;;5038703;28;20028;-85
2023/06/27 11:22:08;;;;;;;4.20;1.10;;;20.20;99.90;;;;;;5020046;28;20059;-83
2023/06/27 11:24:35;;;;;;;7.75;1.35;;;20.30;99.90;;;;;;5040321;28;20029;-83
2023/06/27 11:27:02;;;;;;;3.60;1.50;;;20.40;99.90;;;;;;5045335;28;20567;-83
2023/06/27 11:29:28;;;;;;;4.45;1.42;;;20.40;99.90;;;;;;5047349;28;20440;-84
2023/06/27 11:31:54;;;;;;;5.00;1.30;;;20.50;99.90;;;;;;5044530;28;20029;-84
2023/06/27 11:34:20;;;;;;;4.60;1.25;;;20.60;99.90;;;;;;5036066;28;20328;-82
2023/06/27 11:36:46;;;;;;;3.60;1.10;;;20.70;99.90;;;;;;5033859;28;20048;-84
2023/06/27 11:39:12;;;;;;;6.90;0.98;;;20.70;99.90;;;;;;5037929;28;20136;-81
2023/06/27 11:41:41;;;;;;;6.50;1.45;;;20.70;99.90;;;;;;5041286;28;20052;-82
2023/06/27 11:44:14;;;;;;;13.45;1.58;;;20.60;99.90;;;;;;5019697;28;20031;-81
2023/06/27 11:46:49;;;;;;;6.72;1.35;;;20.40;99.10;;;;;;5030660;28;20048;-82
2023/06/27 11:49:16;;;;;;;5.50;1.63;;;20.30;98.90;;;;;;5042412;28;20052;-81
2023/06/27 11:51:42;;;;;;;2.00;1.25;;;20.30;99.90;;;;;;5039898;28;20033;-83
2023/06/27 11:54:08;;;;;;;7.25;1.52;;;20.20;99.90;;;;;;5040922;28;20368;-83
2023/06/27 11:56:38;;;;;;;3.85;1.42;;;20.10;99.90;;;;;;5034119;28;20045;-83
2023/06/27 11:59:06;;;;;;;6.35;1.80;;;20.00;99.90;;;;;;5034921;28;20035;-85
2023/06/27 12:01:42;;;;;;;4.53;1.42;;;20.10;99.90;;;;;;5018015;28;20379;-81
2023/06/27 12:04:13;;;;;;;5.30;1.27;;;20.30;99.90;;;;;;5034661;28;20053;-83
2023/06/27 12:06:40;;;;;;;4.85;1.17;;;20.50;99.70;;;;;;5035884;28;20044;-85
2023/06/27 12:09:28;;;;;;;2.67;1.20;;;20.60;99.90;;;;;;5038449;28;20025;-82
2023/06/27 12:11:59;;;;;;;8.05;2.13;;;20.50;99.90;;;;;;5036699;28;20060;-82
2023/06/27 12:14:26;;;;;;;6.70;1.58;;;20.40;99.90;;;;;;5037382;28;20025;-83
2023/06/27 12:16:53;;;;;;;6.20;1.85;;;20.20;99.90;;;;;;5042177;28;20040;-83
2023/06/27 12:19:19;;;;;;;5.35;1.60;;;20.10;99.90;;;;;;5040607;28;20020;-82
2023/06/27 12:21:45;;;;;;;3.50;1.45;;;20.10;99.90;;;;;;5029935;28;20030;-84
2023/06/27 12:24:11;;;;;;;8.35;2.28;;;20.10;99.90;;;;;;5030642;28;20032;-83
2023/06/27 12:26:38;;;;;;;8.38;1.65;;;19.90;99.90;;;;;;5032729;28;20487;-85
2023/06/27 12:29:05;;;;;;;10.20;1.95;;;19.90;99.90;;;;;;5044205;28;20698;-87
2023/06/27 12:31:31;;;;;;;6.57;1.30;;;19.90;99.90;;;;;;5037323;28;20021;-82
2023/06/27 12:33:59;;;;;;;4.60;1.27;;;20.00;99.90;;;;;;5040920;28;20270;-84
2023/06/27 12:36:25;;;;;;;6.43;1.67;;;20.20;99.90;;;;;;5040668;28;20056;-81
2023/06/27 12:38:51;;;;;;;3.38;1.27;;;20.40;99.90;;;;;;5038183;28;20072;-84
2023/06/27 12:41:18;;;;;;;4.38;1.30;;;20.50;99.90;;;;;;5016817;28;20083;-84
2023/06/27 12:43:45;;;;;;;11.73;1.77;;;20.60;99.90;;;;;;5046488;28;20232;-84